Time;durP1;ratioP1;P1;durP2;ratioP2;P2;SDS_P1;SDS_P2;PMS_P1;PMS_P2;Temp;Humidity;BMP_temperature;BMP_pressure;BME280_temperature;BME280_humidity;BME280_pressure;Samples;Min_cycle;Max_cycle;Signal;HPM_P1;HPM_P2
2022/11/12 00:04:54;;;;;;;11.98;7.85;;;;;;;0.69;100.00;102965.63;10363887;28;20041;-78
2022/11/12 00:09:55;;;;;;;10.13;7.25;;;;;;;0.59;100.00;102963.63;10363011;28;20209;-77
2022/11/12 00:14:55;;;;;;;12.55;8.32;;;;;;;0.50;100.00;102963.41;10362950;28;20080;-77
2022/11/12 00:19:56;;;;;;;12.20;9.05;;;;;;;0.45;100.00;102954.19;10363803;28;20053;-77
2022/11/12 00:24:56;;;;;;;18.40;12.35;;;;;;;0.54;100.00;102957.88;10362134;28;20069;-78
2022/11/12 00:29:57;;;;;;;14.02;11.30;;;;;;;0.52;100.00;102956.78;10400436;28;20041;-77
2022/11/12 00:34:57;;;;;;;21.55;14.60;;;;;;;0.50;100.00;102958.25;10345447;28;20044;-78
2022/11/12 00:39:58;;;;;;;19.60;12.43;;;;;;;0.48;100.00;102949.41;10361567;28;20049;-78
2022/11/12 00:44:58;;;;;;;27.35;12.57;;;;;;;0.52;100.00;102948.16;10361987;28;20038;-77
2022/11/12 00:49:59;;;;;;;15.75;11.80;;;;;;;0.55;100.00;102941.69;10361196;28;20034;-77
2022/11/12 00:54:59;;;;;;;17.98;13.93;;;;;;;0.53;100.00;102945.75;10358772;28;20137;-77
2022/11/12 01:00:00;;;;;;;21.45;12.82;;;;;;;0.51;100.00;102942.06;10360243;28;20046;-78
2022/11/12 01:05:00;;;;;;;29.02;17.38;;;;;;;0.54;100.00;102936.38;10358633;28;20095;-77
2022/11/12 01:10:01;;;;;;;29.35;17.17;;;;;;;0.60;100.00;102938.75;10358339;28;20038;-78
2022/11/12 01:15:02;;;;;;;11.80;9.07;;;;;;;0.58;100.00;102936.91;10360551;28;20156;-77
2022/11/12 01:20:03;;;;;;;9.18;8.23;;;;;;;0.36;100.00;102929.88;10338847;28;24643;-77
2022/11/12 01:25:04;;;;;;;11.90;8.60;;;;;;;0.41;100.00;102933.94;10361007;28;20037;-78
2022/11/12 01:30:04;;;;;;;21.58;14.65;;;;;;;0.49;100.00;102943.53;10357494;28;20125;-78
2022/11/12 01:35:05;;;;;;;18.73;13.00;;;;;;;0.57;100.00;102931.59;10341857;28;20038;-77
2022/11/12 01:40:06;;;;;;;20.00;15.20;;;;;;;0.65;100.00;102932.50;10360049;28;20096;-78
2022/11/12 01:45:16;;;;;;;33.75;19.95;;;;;;;0.76;100.00;102926.97;10342297;28;20046;-78
2022/11/12 01:50:28;;;;;;;32.58;21.08;;;;;;;0.98;100.00;102926.97;10356809;28;20066;-77
2022/11/12 01:55:31;;;;;;;29.55;21.90;;;;;;;0.97;100.00;102927.72;10323370;28;20085;-78
2022/11/12 02:00:31;;;;;;;33.03;20.52;;;;;;;0.96;100.00;102925.88;10357961;28;20046;-78
2022/11/12 02:05:32;;;;;;;33.50;21.90;;;;;;;1.01;100.00;102932.50;10356541;28;20081;-78
2022/11/12 02:10:33;;;;;;;31.33;22.95;;;;;;;0.92;100.00;102931.41;10325038;28;20064;-78
2022/11/12 02:15:34;;;;;;;25.10;18.87;;;;;;;0.86;100.00;102929.94;10340922;28;20100;-77
2022/11/12 02:20:35;;;;;;;26.50;17.58;;;;;;;0.88;100.00;102937.88;10324160;28;20280;-78
2022/11/12 02:25:36;;;;;;;28.37;17.10;;;;;;;0.81;100.00;102930.13;10341010;28;20050;-78
2022/11/12 02:30:39;;;;;;;29.45;17.25;;;;;;;0.63;100.00;102923.66;10358194;28;20367;-77
2022/11/12 02:35:39;;;;;;;24.63;17.10;;;;;;;0.63;100.00;102916.88;10357401;28;20121;-78
2022/11/12 02:40:40;;;;;;;25.83;16.48;;;;;;;0.71;100.00;102913.56;10356348;28;20041;-78
2022/11/12 02:45:40;;;;;;;26.63;16.08;;;;;;;0.79;100.00;102921.28;10356121;28;20037;-78
2022/11/12 02:50:41;;;;;;;27.63;19.23;;;;;;;0.90;100.00;102920.91;10358150;28;20030;-78
2022/11/12 02:55:42;;;;;;;30.17;19.95;;;;;;;0.93;100.00;102920.34;10340481;28;20057;-77
2022/11/12 03:00:42;;;;;;;20.88;16.00;;;;;;;0.78;100.00;102909.13;10355777;28;20030;-77
2022/11/12 03:05:43;;;;;;;26.58;17.05;;;;;;;0.50;100.00;102911.88;10356301;28;20046;-78
2022/11/12 03:10:44;;;;;;;24.10;16.30;;;;;;;0.33;100.00;102909.84;10337765;28;20034;-77
2022/11/12 03:15:44;;;;;;;23.27;15.70;;;;;;;0.35;100.00;102907.44;10357483;28;20076;-78
2022/11/12 03:20:50;;;;;;;20.98;15.93;;;;;;;0.37;100.00;102913.69;10356611;28;20061;-77
2022/11/12 03:25:51;;;;;;;22.70;15.70;;;;;;;0.22;100.00;102913.66;10359662;28;20042;-77
2022/11/12 03:30:55;;;;;;;18.83;14.57;;;;;;;-0.01;100.00;102916.91;10363915;28;20394;-78
2022/11/12 03:35:56;;;;;;;23.85;16.38;;;;;;;-0.09;100.00;102914.13;10362679;28;20457;-77
2022/11/12 03:40:56;;;;;;;21.90;14.88;;;;;;;-0.22;100.00;102914.25;10363334;28;20037;-78
2022/11/12 03:45:57;;;;;;;20.77;15.45;;;;;;;-0.34;100.00;102917.16;10346722;28;20401;-76
2022/11/12 03:50:58;;;;;;;26.33;15.50;;;;;;;-0.38;100.00;102911.44;10364386;28;20050;-76
2022/11/12 03:55:58;;;;;;;26.17;17.55;;;;;;;-0.33;100.00;102898.41;10364385;28;20108;-77
2022/11/12 04:00:59;;;;;;;24.10;17.05;;;;;;;-0.35;100.00;102891.25;10362922;28;20145;-76
2022/11/12 04:11:19;;;;;;;31.23;19.83;;;;;;;-0.36;100.00;102886.84;10364248;28;20038;-76
2022/11/12 04:21:49;;;;;;;22.70;16.65;;;;;;;-0.34;100.00;102893.09;10322185;28;20038;-77
2022/11/12 04:26:50;;;;;;;26.95;16.90;;;;;;;-0.31;100.00;102891.81;10354359;28;20050;-77
2022/11/12 04:31:50;;;;;;;24.00;16.63;;;;;;;-0.32;100.00;102889.97;10360982;28;20046;-83
2022/11/12 04:36:51;;;;;;;28.50;16.75;;;;;;;-0.35;100.00;102883.53;10361771;28;20539;-79
2022/11/12 04:47:10;;;;;;;22.70;14.70;;;;;;;-0.53;100.00;102874.44;10360385;28;20107;-80
2022/11/12 04:52:11;;;;;;;20.20;14.13;;;;;;;-0.67;100.00;102873.63;10360222;28;20046;-78
2022/11/12 04:57:11;;;;;;;24.05;16.10;;;;;;;-0.73;100.00;102879.66;10344534;28;20068;-78
2022/11/12 05:02:13;;;;;;;23.23;15.43;;;;;;;-0.77;100.00;102874.13;10343028;28;20042;-77
2022/11/12 05:07:13;;;;;;;19.98;14.38;;;;;;;-0.69;100.00;102871.59;10337126;28;20486;-77
2022/11/12 05:12:14;;;;;;;25.00;16.27;;;;;;;-0.68;100.00;102868.31;10344571;28;20176;-77
2022/11/12 05:17:14;;;;;;;26.50;16.48;;;;;;;-0.71;100.00;102866.25;10358303;28;20066;-78
2022/11/12 05:22:15;;;;;;;18.52;13.88;;;;;;;-0.64;100.00;102858.56;10361199;28;20160;-78
2022/11/12 05:27:17;;;;;;;21.02;14.65;;;;;;;-0.65;100.00;102864.44;10355238;28;20048;-78
2022/11/12 05:32:18;;;;;;;24.30;13.93;;;;;;;-0.60;100.00;102842.78;10359991;28;20070;-77
2022/11/12 05:37:19;;;;;;;24.27;15.30;;;;;;;-0.60;100.00;102840.22;10357172;28;20034;-78
2022/11/12 05:42:19;;;;;;;27.42;17.35;;;;;;;-0.60;100.00;102839.31;10340815;28;20052;-79
2022/11/12 05:47:20;;;;;;;24.33;16.45;;;;;;;-0.55;100.00;102839.88;10357174;28;20069;-78
2022/11/12 05:52:20;;;;;;;24.75;17.10;;;;;;;-0.47;100.00;102828.88;10354584;28;20736;-79
2022/11/12 05:57:21;;;;;;;28.70;19.00;;;;;;;-0.42;100.00;102838.09;10356952;28;20034;-78
2022/11/12 06:02:21;;;;;;;27.73;18.85;;;;;;;-0.24;100.00;102841.09;10353127;28;20052;-78
2022/11/12 06:07:22;;;;;;;30.48;19.80;;;;;;;-0.25;100.00;102840.19;10355010;28;20038;-80
2022/11/12 06:12:22;;;;;;;24.88;18.17;;;;;;;-0.28;100.00;102832.09;10355931;28;20132;-79
2022/11/12 06:17:23;;;;;;;31.27;18.92;;;;;;;-0.19;100.00;102838.38;10354439;28;20132;-81
2022/11/12 06:22:23;;;;;;;25.27;18.33;;;;;;;-0.13;100.00;102838.19;10356061;28;20050;-77
2022/11/12 06:27:24;;;;;;;29.38;18.98;;;;;;;-0.11;100.00;102843.53;10354033;28;20405;-79
2022/11/12 06:32:24;;;;;;;33.53;17.30;;;;;;;-0.25;100.00;102849.53;10336743;28;20050;-79
2022/11/12 06:37:25;;;;;;;27.80;18.30;;;;;;;-0.42;100.00;102843.22;10355935;28;20042;-80
2022/11/12 06:42:25;;;;;;;23.38;15.35;;;;;;;-0.53;100.00;102852.22;10340701;28;20045;-79
2022/11/12 06:47:26;;;;;;;21.52;14.35;;;;;;;-0.61;100.00;102848.66;10355270;28;20133;-79
2022/11/12 06:52:27;;;;;;;21.23;14.82;;;;;;;-0.67;100.00;102858.19;10356402;28;20049;-79
2022/11/12 06:57:27;;;;;;;25.30;16.48;;;;;;;-0.71;100.00;102861.13;10357786;28;20230;-79
2022/11/12 07:02:28;;;;;;;22.92;16.20;;;;;;;-0.68;100.00;102861.50;10365647;28;20184;-79
2022/11/12 07:07:28;;;;;;;20.10;15.52;;;;;;;-0.62;100.00;102851.97;10349213;28;20073;-78
2022/11/12 07:12:29;;;;;;;23.30;15.35;;;;;;;-0.52;100.00;102860.84;10367030;28;20037;-79
2022/11/12 07:17:29;;;;;;;26.50;15.55;;;;;;;-0.42;100.00;102873.22;10364538;28;20109;-79
2022/11/12 07:22:32;;;;;;;27.15;17.50;;;;;;;-0.30;100.00;102882.44;10364552;28;20397;-79
2022/11/12 07:27:32;;;;;;;22.17;14.73;;;;;;;-0.21;100.00;102882.66;10364864;28;20045;-79
2022/11/12 07:32:33;;;;;;;29.67;15.77;;;;;;;-0.15;100.00;102898.84;10349668;28;20058;-79
2022/11/12 07:37:34;;;;;;;22.27;16.45;;;;;;;-0.05;100.00;102891.53;10363999;28;20034;-79
2022/11/12 07:42:34;;;;;;;18.67;14.23;;;;;;;0.04;100.00;102889.16;10347224;28;20042;-79
2022/11/12 07:47:35;;;;;;;26.98;16.80;;;;;;;0.16;100.00;102891.41;10364773;28;20600;-79
2022/11/12 07:52:39;;;;;;;27.45;15.70;;;;;;;0.34;100.00;102888.50;10348046;28;20168;-79
2022/11/12 07:57:39;;;;;;;29.55;18.33;;;;;;;0.52;100.00;102886.31;10363344;28;20124;-79
2022/11/12 08:02:40;;;;;;;31.20;18.42;;;;;;;0.69;100.00;102886.69;10366218;28;20052;-79
2022/11/12 08:07:40;;;;;;;29.60;20.63;;;;;;;0.91;100.00;102893.47;10363179;28;20041;-79
2022/11/12 08:12:41;;;;;;;34.83;22.23;;;;;;;1.11;100.00;102894.16;10362457;28;20129;-79
2022/11/12 08:17:41;;;;;;;28.52;19.80;;;;;;;1.27;100.00;102889.19;10346020;28;20393;-79
2022/11/12 08:22:42;;;;;;;32.42;22.83;;;;;;;1.41;100.00;102893.34;10362087;28;20034;-79
2022/11/12 08:27:42;;;;;;;33.22;22.10;;;;;;;1.60;100.00;102895.50;10364497;28;20397;-80
2022/11/12 08:32:43;;;;;;;34.45;19.40;;;;;;;1.87;100.00;102891.69;10363207;28;20073;-78
2022/11/12 08:37:43;;;;;;;29.23;19.92;;;;;;;2.14;100.00;102891.38;10363469;28;20121;-79
2022/11/12 08:42:44;;;;;;;30.67;19.50;;;;;;;2.46;100.00;102894.13;10364203;28;20153;-79
2022/11/12 08:47:44;;;;;;;35.05;22.88;;;;;;;2.76;100.00;102902.56;10361415;28;20500;-79
2022/11/12 08:52:45;;;;;;;31.20;21.48;;;;;;;3.19;100.00;102901.25;10361418;28;20044;-79
2022/11/12 08:57:45;;;;;;;34.65;22.08;;;;;;;3.50;100.00;102917.53;10345122;28;20482;-79
2022/11/12 09:02:46;;;;;;;30.83;21.20;;;;;;;3.80;100.00;102912.16;10361510;28;20037;-78
2022/11/12 09:07:46;;;;;;;35.17;25.05;;;;;;;4.14;100.00;102907.13;10361180;28;20129;-79
2022/11/12 09:12:50;;;;;;;43.03;25.60;;;;;;;4.66;100.00;102916.88;10344614;28;20038;-79
2022/11/12 09:17:58;;;;;;;30.05;19.88;;;;;;;4.94;100.00;102909.34;10360251;28;20125;-79
2022/11/12 09:23:19;;;;;;;35.28;20.60;;;;;;;5.17;100.00;102907.31;10359211;28;20058;-79
2022/11/12 09:28:19;;;;;;;39.85;20.40;;;;;;;5.48;100.00;102900.94;10359385;28;20025;-78
2022/11/12 09:33:28;;;;;;;39.80;21.50;;;;;;;6.04;100.00;102906.47;10342832;28;20137;-79
2022/11/12 09:38:29;;;;;;;33.10;19.75;;;;;;;7.30;100.00;102906.34;10360280;28;20389;-79
2022/11/12 09:43:31;;;;;;;21.02;12.00;;;;;;;10.21;100.00;102905.44;10360342;28;20069;-79
2022/11/12 09:48:34;;;;;;;;;;;;;;;12.18;82.36;102873.41;10343542;28;20026;-79
2022/11/12 09:53:55;;;;;;;13.70;7.40;;;;;;;14.43;68.14;102869.34;10360626;28;19956;-78
2022/11/12 09:58:56;;;;;;;11.27;7.07;;;;;;;15.89;60.21;102880.84;10360421;28;20038;-79
2022/11/12 10:04:17;;;;;;;10.63;7.50;;;;;;;16.08;59.29;102875.78;10342779;28;20038;-79
2022/11/12 10:09:23;;;;;;;12.13;7.47;;;;;;;16.55;58.38;102870.44;10358376;28;20045;-80
2022/11/12 10:14:38;;;;;;;11.10;6.07;;;;;;;17.86;50.59;102868.44;10341810;28;20490;-80
2022/11/12 10:19:47;;;;;;;11.90;6.38;;;;;;;18.95;48.81;102862.94;10359571;28;20379;-80
2022/11/12 10:24:48;;;;;;;12.10;6.30;;;;;;;18.89;49.41;102854.69;10339389;28;20095;-80
2022/11/12 10:30:04;;;;;;;9.90;5.30;;;;;;;19.30;44.68;102852.09;10357975;28;20552;-80
2022/11/12 10:35:05;;;;;;;11.15;7.03;;;;;;;19.35;45.71;102855.84;10328607;28;20541;-80
2022/11/12 10:40:24;;;;;;;11.13;4.85;;;;;;;18.89;47.69;102852.97;10358560;28;20030;-80
2022/11/12 10:45:24;;;;;;;9.65;6.40;;;;;;;18.93;49.58;102849.59;10359502;28;20509;-80
2022/11/12 10:50:28;;;;;;;10.77;6.10;;;;;;;18.22;48.41;102849.00;10358609;28;20030;-80
2022/11/12 10:55:30;;;;;;;9.60;5.25;;;;;;;17.70;50.95;102842.94;10359741;28;20540;-81
2022/11/12 11:00:33;;;;;;;9.82;4.82;;;;;;;16.98;52.61;102842.81;10340344;28;20103;-79
2022/11/12 11:05:50;;;;;;;7.68;5.43;;;;;;;16.29;55.95;102846.13;10341839;28;20046;-79
2022/11/12 11:10:50;;;;;;;11.80;6.40;;;;;;;16.08;54.08;102830.88;10342788;28;20760;-79
2022/11/12 11:16:02;;;;;;;9.85;5.53;;;;;;;15.93;54.52;102836.22;10339844;28;20038;-80
2022/11/12 11:21:03;;;;;;;11.20;5.93;;;;;;;15.48;54.54;102830.97;10356223;28;20091;-79
2022/11/12 11:26:27;;;;;;;9.00;5.78;;;;;;;15.47;54.99;102820.34;10357118;28;20049;-80
2022/11/12 11:31:30;;;;;;;11.02;6.32;;;;;;;15.60;56.27;102820.25;10339139;28;20483;-80
2022/11/12 11:36:43;;;;;;;12.40;6.15;;;;;;;16.53;54.98;102803.38;10353727;28;20390;-80
2022/11/12 11:41:52;;;;;;;12.40;6.75;;;;;;;16.83;53.76;102795.25;10357529;28;20042;-80
2022/11/12 11:47:01;;;;;;;8.23;5.95;;;;;;;17.03;52.97;102794.59;10361502;28;20057;-80
2022/11/12 11:52:02;;;;;;;16.20;8.18;;;;;;;16.30;55.13;102800.38;10364073;28;20037;-79
2022/11/12 11:57:09;;;;;;;22.83;11.70;;;;;;;16.40;57.85;102789.50;10364440;28;20029;-80
2022/11/12 12:02:10;;;;;;;19.75;7.97;;;;;;;16.93;55.56;102794.91;10348456;28;20053;-80
2022/11/12 12:07:22;;;;;;;13.05;6.65;;;;;;;17.88;53.20;102791.72;10365768;28;20053;-79
2022/11/12 12:12:28;;;;;;;12.02;7.30;;;;;;;18.00;50.31;102778.16;10380519;28;20457;-80
2022/11/12 12:17:53;;;;;;;15.38;7.78;;;;;;;17.90;50.04;102772.41;10363672;28;20103;-80
2022/11/12 12:23:00;;;;;;;10.30;6.97;;;;;;;18.38;50.05;102765.81;10376912;28;20073;-80
2022/11/12 12:28:03;;;;;;;9.93;6.60;;;;;;;19.92;45.99;102759.03;10356301;28;20041;-80
2022/11/12 12:33:16;;;;;;;9.88;6.97;;;;;;;21.27;41.35;102759.50;10362430;28;20042;-80
2022/11/12 12:38:20;;;;;;;;;;;;;;;22.58;40.58;102748.38;10364248;28;20132;-80
2022/11/12 12:43:44;;;;;;;8.48;5.22;;;;;;;23.01;38.39;102747.72;10363431;28;20304;-80
2022/11/12 12:48:44;;;;;;;11.32;6.30;;;;;;;23.16;38.19;102742.75;10360918;28;20104;-80
2022/11/12 12:53:45;;;;;;;8.40;6.20;;;;;;;22.25;38.73;102741.19;10360853;28;20140;-80
2022/11/12 12:58:46;;;;;;;9.18;6.00;;;;;;;22.16;40.53;102740.94;10360762;28;20038;-80
2022/11/12 13:04:02;;;;;;;8.23;4.97;;;;;;;22.76;40.45;102735.50;10345322;28;20478;-80
2022/11/12 13:09:11;;;;;;;6.50;4.10;;;;;;;22.14;40.89;102722.22;10364077;28;20379;-80
2022/11/12 13:14:35;;;;;;;8.68;5.93;;;;;;;21.33;42.25;102725.94;10362155;28;20465;-80
2022/11/12 13:19:57;;;;;;;7.65;4.35;;;;;;;21.82;42.00;102716.84;10362071;28;20116;-80
2022/11/12 13:25:07;;;;;;;7.78;4.38;;;;;;;21.34;44.12;102706.44;10376414;28;20062;-80
2022/11/12 13:30:07;;;;;;;7.60;5.05;;;;;;;;;;10361080;28;20045;-80
2022/11/12 13:35:14;;;;;;;9.93;4.53;;;;;;;22.37;42.75;102699.72;10375398;28;20037;-81
2022/11/12 13:40:54;;;;;;;9.20;5.40;;;;;;;21.66;44.02;102702.13;10358813;28;20863;-80
2022/11/12 13:46:10;;;;;;;9.85;5.63;;;;;;;21.35;44.06;102695.81;10362350;28;20119;-79
2022/11/12 13:51:30;;;;;;;13.63;5.78;;;;;;;20.86;47.19;102696.84;10360576;28;20056;-80
2022/11/12 13:56:32;;;;;;;7.80;4.70;;;;;;;20.65;46.52;102700.56;10359232;28;20042;-81
2022/11/12 14:01:33;;;;;;;8.55;4.57;;;;;;;19.36;50.29;102707.25;10358539;28;20037;-80
2022/11/12 14:06:35;;;;;;;9.57;4.75;;;;;;;18.37;51.27;102704.78;10342641;28;20044;-80
2022/11/12 14:11:47;;;;;;;8.65;4.25;;;;;;;16.05;60.99;102705.69;10356784;28;20045;-80
2022/11/12 14:17:08;;;;;;;11.27;5.32;;;;;;;14.86;65.04;102703.38;10358743;28;20099;-80
2022/11/12 14:22:16;;;;;;;8.73;5.07;;;;;;;14.70;66.34;102690.09;10355933;28;20042;-80
2022/11/12 14:27:30;;;;;;;13.98;4.85;;;;;;;13.65;70.70;102695.97;10375142;28;20046;-81
2022/11/12 14:32:37;;;;;;;11.25;4.88;;;;;;;13.31;71.03;102691.09;10358070;28;20068;-80
2022/11/12 14:37:38;;;;;;;6.00;3.40;;;;;;;12.74;76.09;102689.16;10315771;28;20042;-80
2022/11/12 14:42:38;;;;;;;10.80;6.68;;;;;;;11.87;78.84;102691.00;10355770;28;20084;-80
2022/11/12 14:47:39;;;;;;;9.70;4.03;;;;;;;11.23;82.94;102684.59;10343128;28;20120;-80
2022/11/12 14:52:41;;;;;;;12.88;5.22;;;;;;;10.88;86.06;102686.41;10355999;28;20038;-80
2022/11/12 14:57:42;;;;;;;8.77;6.15;;;;;;;10.57;87.49;102682.34;10341870;28;20052;-80
2022/11/12 15:02:42;;;;;;;15.50;6.60;;;;;;;10.33;89.02;102675.19;10357949;28;20371;-80
2022/11/12 15:07:57;;;;;;;10.52;5.10;;;;;;;10.00;89.81;102672.69;10355179;28;20422;-79
2022/11/12 15:13:08;;;;;;;12.52;4.10;;;;;;;9.65;92.96;102669.06;10323752;28;20044;-80
2022/11/12 15:18:18;;;;;;;8.95;3.88;;;;;;;9.18;94.21;102676.56;10371484;28;20049;-79
2022/11/12 15:23:18;;;;;;;10.18;3.80;;;;;;;8.86;96.52;102674.81;10363842;28;20040;-80
2022/11/12 15:28:21;;;;;;;14.23;6.10;;;;;;;8.71;98.61;102674.47;10347954;28;20389;-79
2022/11/12 15:33:21;;;;;;;10.85;5.40;;;;;;;8.55;100.00;102659.19;10347132;28;20065;-79
2022/11/12 15:38:30;;;;;;;12.63;6.63;;;;;;;8.31;100.00;102661.50;10349572;28;20037;-78
2022/11/12 15:43:32;;;;;;;12.85;5.85;;;;;;;8.00;100.00;102659.78;10365279;28;20030;-78
2022/11/12 15:48:32;;;;;;;10.67;4.60;;;;;;;7.83;100.00;102646.97;10365704;28;20113;-78
2022/11/12 15:53:33;;;;;;;14.38;6.80;;;;;;;7.69;100.00;102649.28;10365502;28;20029;-79
2022/11/12 15:58:34;;;;;;;11.30;6.15;;;;;;;7.43;100.00;102653.09;10365140;28;20048;-79
2022/11/12 16:03:35;;;;;;;10.77;6.53;;;;;;;7.32;100.00;102653.84;10347707;28;20030;-79
2022/11/12 16:08:35;;;;;;;10.43;7.78;;;;;;;7.14;100.00;102659.22;10346242;28;20449;-79
2022/11/12 16:13:36;;;;;;;13.75;8.23;;;;;;;6.98;100.00;102661.19;10365526;28;20142;-79
2022/11/12 16:18:36;;;;;;;14.38;8.90;;;;;;;6.71;100.00;102657.91;10362515;28;20137;-79
2022/11/12 16:23:37;;;;;;;15.15;8.98;;;;;;;6.63;100.00;102654.56;10357935;28;20073;-78
2022/11/12 16:28:38;;;;;;;12.05;7.85;;;;;;;6.42;100.00;102646.59;10363777;28;20037;-79
2022/11/12 16:33:38;;;;;;;16.75;8.65;;;;;;;6.24;100.00;102648.41;10363263;28;20041;-79
2022/11/12 16:38:38;;;;;;;20.05;10.35;;;;;;;6.27;100.00;102651.31;10361390;28;20066;-79
2022/11/12 16:43:39;;;;;;;15.93;10.23;;;;;;;6.41;100.00;102644.78;10349408;28;20052;-79
2022/11/12 16:48:40;;;;;;;15.35;8.27;;;;;;;6.36;100.00;102630.44;10358088;28;20037;-78
2022/11/12 16:53:40;;;;;;;15.10;9.85;;;;;;;6.27;100.00;102638.31;10341286;28;20049;-80
2022/11/12 16:58:41;;;;;;;14.38;9.50;;;;;;;6.30;100.00;102643.78;10358737;28;20096;-80
2022/11/12 17:03:41;;;;;;;16.40;8.90;;;;;;;6.16;100.00;102645.09;10356558;28;20406;-80
2022/11/12 17:08:43;;;;;;;18.50;8.05;;;;;;;5.85;100.00;102636.94;10359151;28;20565;-80
2022/11/12 17:13:43;;;;;;;13.50;8.82;;;;;;;5.57;100.00;102636.91;10356123;28;20041;-80
2022/11/12 17:18:44;;;;;;;15.73;9.63;;;;;;;5.35;100.00;102645.97;10368731;28;20049;-79
2022/11/12 17:23:44;;;;;;;15.35;9.98;;;;;;;5.11;100.00;102635.97;10376246;28;20125;-79
2022/11/12 17:28:45;;;;;;;15.63;10.05;;;;;;;5.03;100.00;102634.28;10353741;28;20493;-79
2022/11/12 17:33:47;;;;;;;15.57;11.00;;;;;;;4.85;100.00;102634.31;10336433;28;20046;-79
2022/11/12 17:38:48;;;;;;;16.58;10.63;;;;;;;4.84;100.00;102626.34;10346041;28;20053;-80
2022/11/12 17:43:53;;;;;;;19.10;12.10;;;;;;;5.01;100.00;102628.03;10357432;28;20478;-79
2022/11/12 17:48:54;;;;;;;21.25;14.55;;;;;;;5.12;100.00;102634.25;10341761;28;20054;-81
2022/11/12 17:53:54;;;;;;;23.40;15.30;;;;;;;5.09;100.00;102614.13;10348292;28;20038;-83
2022/11/12 17:58:55;;;;;;;27.02;15.52;;;;;;;5.12;100.00;102611.84;10358854;28;20046;-79
2022/11/12 18:03:56;;;;;;;24.08;14.85;;;;;;;5.10;100.00;102610.78;10357295;28;20034;-81
2022/11/12 18:09:00;;;;;;;26.35;17.10;;;;;;;5.24;100.00;102617.28;10358270;28;20501;-80
2022/11/12 18:14:05;;;;;;;30.83;19.00;;;;;;;5.39;100.00;102601.38;10339198;28;20045;-79
2022/11/12 18:19:09;;;;;;;37.00;25.05;;;;;;;5.45;100.00;102596.75;10350025;28;20513;-79
2022/11/12 18:24:12;;;;;;;39.50;24.55;;;;;;;5.42;100.00;102605.19;10346585;28;20096;-79
2022/11/12 18:29:13;;;;;;;35.05;23.25;;;;;;;5.35;100.00;102607.03;10319515;28;20124;-79
2022/11/12 18:34:13;;;;;;;26.65;18.17;;;;;;;5.10;100.00;102615.97;10343779;28;20041;-79
2022/11/12 18:39:14;;;;;;;32.15;21.02;;;;;;;4.92;100.00;102615.06;10353447;28;20661;-79
2022/11/12 18:44:15;;;;;;;38.05;21.58;;;;;;;4.70;100.00;102614.63;10353582;28;20121;-79
2022/11/12 18:49:15;;;;;;;32.25;19.17;;;;;;;4.58;100.00;102605.63;10354091;28;20077;-80
2022/11/12 18:54:16;;;;;;;37.78;22.17;;;;;;;4.53;100.00;102600.88;10356241;28;20038;-80
2022/11/12 18:59:16;;;;;;;35.22;22.63;;;;;;;4.46;100.00;102605.28;10364339;28;20037;-78
2022/11/12 19:04:17;;;;;;;36.05;24.02;;;;;;;4.46;100.00;102595.84;10364283;28;20121;-80
2022/11/12 19:09:17;;;;;;;34.22;24.88;;;;;;;4.58;100.00;102593.53;10366105;28;20359;-79
2022/11/12 19:14:18;;;;;;;37.38;24.95;;;;;;;4.58;100.00;102603.03;10365819;28;20046;-79
2022/11/12 19:19:18;;;;;;;33.97;23.15;;;;;;;4.63;100.00;102594.91;10365494;28;25804;-79
2022/11/12 19:24:19;;;;;;;36.85;25.75;;;;;;;4.76;100.00;102599.66;10346250;28;20066;-79
2022/11/12 19:29:20;;;;;;;33.38;23.27;;;;;;;4.76;100.00;102594.47;10364837;28;20034;-79
2022/11/12 19:34:20;;;;;;;33.13;24.95;;;;;;;4.75;100.00;102594.31;10364570;28;20061;-78
2022/11/12 19:39:21;;;;;;;37.83;27.45;;;;;;;4.67;100.00;102590.97;10363201;28;20045;-78
2022/11/12 19:44:22;;;;;;;31.50;24.50;;;;;;;4.61;100.00;102591.25;10345613;28;20110;-78
2022/11/12 19:49:24;;;;;;;38.45;23.40;;;;;;;4.57;100.00;102583.03;10365479;28;20064;-79
2022/11/12 19:54:27;;;;;;;41.35;28.77;;;;;;;4.59;100.00;102585.00;10362698;28;20048;-80
2022/11/12 19:59:28;;;;;;;43.85;28.08;;;;;;;4.59;100.00;102576.31;10362588;28;20041;-79
2022/11/12 20:04:29;;;;;;;39.80;27.67;;;;;;;4.53;100.00;102567.19;10347184;28;20104;-80
2022/11/12 20:09:30;;;;;;;36.67;26.67;;;;;;;4.51;100.00;102562.59;10364744;28;20069;-79
2022/11/12 20:14:31;;;;;;;43.00;28.05;;;;;;;4.47;100.00;102563.03;10360987;28;20061;-79
2022/11/12 20:19:32;;;;;;;41.03;28.13;;;;;;;4.41;100.00;102566.84;10362523;28;20042;-79
2022/11/12 20:24:33;;;;;;;37.20;27.05;;;;;;;4.39;100.00;102559.69;10362107;28;20101;-79
2022/11/12 20:29:33;;;;;;;44.20;26.90;;;;;;;4.42;100.00;102562.59;10362136;28;20065;-81
2022/11/12 20:34:36;;;;;;;43.83;28.92;;;;;;;4.45;100.00;102564.56;10359935;28;20044;-80
2022/11/12 20:39:37;;;;;;;42.65;29.13;;;;;;;4.39;100.00;102558.00;10362753;28;20038;-80
2022/11/12 20:44:38;;;;;;;38.88;26.20;;;;;;;4.33;100.00;102559.97;10360984;28;20030;-80
2022/11/12 20:49:38;;;;;;;35.35;24.13;;;;;;;4.32;100.00;102560.75;10360464;28;20529;-80
2022/11/12 20:54:39;;;;;;;36.83;25.98;;;;;;;4.31;100.00;102558.03;10360599;28;20541;-80
2022/11/12 20:59:40;;;;;;;35.65;26.17;;;;;;;4.30;100.00;102559.69;10360780;28;20120;-80
2022/11/12 21:04:40;;;;;;;37.65;26.95;;;;;;;4.28;100.00;102553.44;10358246;28;20038;-80
2022/11/12 21:09:41;;;;;;;48.55;28.60;;;;;;;4.22;100.00;102558.00;10358967;28;20065;-80
2022/11/12 21:14:42;;;;;;;30.53;24.20;;;;;;;4.17;100.00;102561.81;10361607;28;20042;-79
2022/11/12 21:19:43;;;;;;;39.05;25.90;;;;;;;4.14;100.00;102549.47;10358384;28;20137;-80
2022/11/12 21:24:43;;;;;;;41.30;27.58;;;;;;;4.14;100.00;102549.47;10361688;28;20240;-80
2022/11/12 21:29:44;;;;;;;36.13;25.73;;;;;;;4.14;100.00;102538.16;10375662;28;20120;-80
2022/11/12 21:34:44;;;;;;;47.90;25.23;;;;;;;4.20;100.00;102533.59;10359730;28;20062;-79
2022/11/12 21:39:48;;;;;;;41.45;27.08;;;;;;;4.26;100.00;102532.56;10359529;28;20409;-79
2022/11/12 21:44:48;;;;;;;36.25;25.35;;;;;;;4.22;100.00;102522.63;10359498;28;20038;-79
2022/11/12 21:49:49;;;;;;;40.35;25.70;;;;;;;4.14;100.00;102520.03;10359027;28;20192;-79
2022/11/12 21:54:49;;;;;;;33.88;25.17;;;;;;;4.09;100.00;102525.66;10357371;28;20038;-79
2022/11/12 21:59:50;;;;;;;38.15;25.98;;;;;;;4.05;100.00;102533.00;10358755;28;20046;-79
2022/11/12 22:04:50;;;;;;;36.53;25.73;;;;;;;3.98;100.00;102523.66;10357672;28;20045;-79
2022/11/12 22:09:51;;;;;;;37.20;25.65;;;;;;;3.88;100.00;102523.50;10357858;28;20049;-79
2022/11/12 22:14:51;;;;;;;35.83;24.25;;;;;;;3.83;100.00;102523.03;10359427;28;20044;-79
2022/11/12 22:19:52;;;;;;;37.67;26.88;;;;;;;3.85;100.00;102516.34;10340691;28;20512;-79
2022/11/12 22:24:52;;;;;;;38.22;28.02;;;;;;;3.92;100.00;102510.09;10360336;28;20045;-79
2022/11/12 22:29:53;;;;;;;44.65;27.35;;;;;;;3.99;100.00;102514.22;10355850;28;20472;-79
2022/11/12 22:34:53;;;;;;;38.97;27.80;;;;;;;4.05;100.00;102512.25;10356223;28;20073;-79
2022/11/12 22:39:54;;;;;;;39.13;29.27;;;;;;;4.02;100.00;102504.19;10360221;28;20026;-79
2022/11/12 22:44:54;;;;;;;46.72;28.77;;;;;;;3.99;100.00;102496.09;10357555;28;20501;-79
2022/11/12 22:49:55;;;;;;;40.15;29.90;;;;;;;3.95;100.00;102500.03;10340525;28;20034;-79
2022/11/12 22:54:55;;;;;;;43.75;29.90;;;;;;;3.91;100.00;102500.50;10357325;28;20774;-80
2022/11/12 22:59:57;;;;;;;32.55;25.90;;;;;;;3.84;100.00;102500.63;10357631;28;20038;-80
2022/11/12 23:04:57;;;;;;;40.33;28.40;;;;;;;3.86;100.00;102488.75;10357562;28;20045;-79